Terminal Aerodrome Forecast
Issued by NWS

Home | Current Version | Previous Version | Text Only | Print | Product List | Glossary On
Versions: 1 2 3 4 5 6 7 8 9 10 11 12 13 14 15 16 17 18 19 20 21 22 23 24 25 26 27 28 29 30 31 32 33 34 35 36 37 38 39 40 41 42 43 44 45 46 47 48
000
FTUS45 KBOU 061727
TAFAPA
TAF
KAPA 061727Z 0618/0718 03008KT P6SM VCSH BKN005 BKN014 OVC025
      TEMPO 0618/0621 1SM -RA BR SCT005 BKN010
     FM062100 05008KT P6SM VCSH SCT005 BKN030
      TEMPO 0621/0701 2SM -RA BR BKN005
     FM070100 10009KT P6SM VCSH SCT040 BKN070
     FM071000 14008KT P6SM SCT025 BKN040
     FM071700 15008KT P6SM VCSH SCT035 OVC050=

USA.gov is the U.S. government's official web portal to all federal, state and local government web resources and services.